Terminal Aerodrome Forecast
Issued by NWS Jackson, MS

Home | Current Version | Previous Version | Text Only | Print | Product List | Glossary On
Versions: 1 2 3 4 5 6 7 8 9 10 11 12 13 14 15 16 17 18 19 20 21 22 23
000
FTUS44 KJAN 011700
TAFJAN
TAF
KJAN 011736Z 0118/0218 17010KT P6SM SCT035 BKN050
     FM012100 17009KT P6SM VCTS SCT040 BKN060CB
     FM020100 16005KT P6SM SCT050 SCT100
     FM021000 17004KT 5SM BR BKN015
     FM021500 18005KT P6SM BKN025
     FM021630 18006KT P6SM SCT030=

USA.gov is the U.S. government's official web portal to all federal, state and local government web resources and services.